createdAt,value
2023-02-24T00:01:09.099Z,7.30
2023-02-24T00:05:30.864Z,7.20
2023-02-24T00:09:52.823Z,7.20
2023-02-24T00:14:17.200Z,7.10
2023-02-24T00:18:39.277Z,7.10
2023-02-24T00:23:01.608Z,7.20
2023-02-24T00:27:23.381Z,7.20
2023-02-24T00:31:47.459Z,7.10
2023-02-24T00:36:30.783Z,7.00
2023-02-24T00:40:53.028Z,7.00
2023-02-24T00:45:16.946Z,6.90
2023-02-24T00:49:42.875Z,6.80
2023-02-24T00:54:06.542Z,6.80
2023-02-24T00:58:30.071Z,6.70
2023-02-24T01:02:52.468Z,6.70
2023-02-24T01:07:14.514Z,6.70
2023-02-24T01:11:56.958Z,6.60
2023-02-24T01:16:19.139Z,6.60
2023-02-24T01:20:41.027Z,6.50
2023-02-24T01:25:03.988Z,6.50
2023-02-24T01:29:26.209Z,6.50
2023-02-24T01:33:50.149Z,6.50
2023-02-24T01:38:12.140Z,6.50
2023-02-24T01:42:36.115Z,6.40
2023-02-24T01:47:01.601Z,6.50
2023-02-24T01:51:27.436Z,6.40
2023-02-24T01:55:51.435Z,6.40
2023-02-24T02:00:37.123Z,6.40
2023-02-24T02:05:06.019Z,6.40
2023-02-24T02:09:29.034Z,6.30
2023-02-24T02:13:53.780Z,6.30
2023-02-24T02:18:47.321Z,6.30
2023-02-24T02:23:21.696Z,6.20
2023-02-24T02:28:15.874Z,6.10
2023-02-24T02:33:21.791Z,6.10
2023-02-24T02:38:17.405Z,6.00
2023-02-24T02:43:08.973Z,6.00
2023-02-24T02:47:43.394Z,5.90
2023-02-24T02:52:18.047Z,5.80
2023-02-24T02:56:56.964Z,5.70
2023-02-24T03:01:22.654Z,5.70
2023-02-24T03:06:04.164Z,5.60
2023-02-24T03:10:32.467Z,5.60
2023-02-24T03:15:04.853Z,5.60
2023-02-24T03:19:37.459Z,5.60
2023-02-24T03:24:02.785Z,5.70
2023-02-24T03:28:53.674Z,5.70
2023-02-24T03:33:36.946Z,5.60
2023-02-24T03:38:00.408Z,5.60
2023-02-24T03:42:26.989Z,5.60
2023-02-24T03:46:49.408Z,5.60
2023-02-24T03:51:23.502Z,5.60
2023-02-24T03:55:58.874Z,5.50
2023-02-24T04:00:39.506Z,5.30
2023-02-24T04:05:16.886Z,5.20
2023-02-24T04:10:12.821Z,5.10
2023-02-24T04:15:20.909Z,5.10
2023-02-24T04:19:45.474Z,5.10
2023-02-24T04:24:15.347Z,5.10
2023-02-24T04:28:41.377Z,5.00
2023-02-24T04:33:03.998Z,5.10
2023-02-24T04:37:25.927Z,5.00
2023-02-24T04:41:49.528Z,5.10
2023-02-24T04:46:13.588Z,5.10
2023-02-24T04:50:37.097Z,5.10
2023-02-24T04:54:59.631Z,5.10
2023-02-24T04:59:24.212Z,5.00
2023-02-24T05:03:47.860Z,5.10
2023-02-24T05:08:10.829Z,5.00
2023-02-24T05:12:33.231Z,5.00
2023-02-24T05:17:00.319Z,5.00
2023-02-24T05:21:35.484Z,5.00
2023-02-24T05:25:58.976Z,5.00
2023-02-24T05:30:21.271Z,5.00
2023-02-24T05:34:43.162Z,4.80
2023-02-24T05:39:06.998Z,4.80
2023-02-24T05:43:31.503Z,4.70
2023-02-24T05:47:55.218Z,4.60
2023-02-24T05:52:17.570Z,4.60
2023-02-24T05:56:44.709Z,4.50
2023-02-24T06:01:23.583Z,4.50
2023-02-24T06:05:54.270Z,4.30
2023-02-24T06:10:16.205Z,4.20
2023-02-24T06:14:38.225Z,4.00
2023-02-24T06:19:01.086Z,3.90
2023-02-24T06:23:22.909Z,3.90
2023-02-24T06:27:45.192Z,3.80
2023-02-24T06:32:10.591Z,3.80
2023-02-24T06:36:32.630Z,3.60
2023-02-24T06:41:04.268Z,3.70
2023-02-24T06:45:27.089Z,3.60
2023-02-24T06:49:49.380Z,3.70
2023-02-24T06:54:11.139Z,3.80
2023-02-24T06:58:33.702Z,3.80
2023-02-24T07:02:56.955Z,3.80
2023-02-24T07:07:20.032Z,3.80
2023-02-24T07:11:52.570Z,3.70
2023-02-24T07:16:20.844Z,3.70
2023-02-24T07:20:46.096Z,3.60
2023-02-24T07:25:08.669Z,3.60
2023-02-24T07:29:32.893Z,3.60
2023-02-24T07:34:02.208Z,3.70
2023-02-24T07:38:24.374Z,3.80
2023-02-24T07:42:47.839Z,3.90
2023-02-24T07:47:10.986Z,3.90
2023-02-24T07:51:33.106Z,3.80
2023-02-24T07:55:55.168Z,3.70
2023-02-24T08:00:20.898Z,3.80
2023-02-24T08:04:50.499Z,3.80
2023-02-24T08:09:17.525Z,3.80
2023-02-24T08:13:39.704Z,3.80
2023-02-24T08:18:01.966Z,3.80
2023-02-24T08:22:28.385Z,3.90
2023-02-24T08:27:05.489Z,3.70
2023-02-24T08:31:27.872Z,3.80
2023-02-24T08:36:01.587Z,3.80
2023-02-24T08:40:32.282Z,3.80
2023-02-24T08:44:54.162Z,3.90
2023-02-24T08:49:18.293Z,4.00
2023-02-24T08:53:43.340Z,4.30
2023-02-24T08:58:11.212Z,4.80
2023-02-24T09:02:39.551Z,5.00
2023-02-24T09:07:11.559Z,5.00
2023-02-24T09:11:33.834Z,4.90
2023-02-24T09:15:56.684Z,4.90
2023-02-24T09:20:27.892Z,4.90
2023-02-24T09:24:51.291Z,5.30
2023-02-24T09:29:33.834Z,5.60
2023-02-24T09:33:55.691Z,5.90
2023-02-24T09:38:42.516Z,6.20
2023-02-24T09:43:11.292Z,6.40
2023-02-24T09:47:57.386Z,6.50
2023-02-24T09:52:20.070Z,6.20
2023-02-24T09:57:09.460Z,6.10
2023-02-24T10:02:05.081Z,6.10
2023-02-24T10:06:35.631Z,6.30
2023-02-24T10:11:07.343Z,6.40
2023-02-24T10:15:59.636Z,6.20
2023-02-24T10:20:39.695Z,6.00
2023-02-24T10:25:39.088Z,5.70
2023-02-24T10:30:41.472Z,5.70
2023-02-24T10:35:03.838Z,5.70
2023-02-24T10:39:27.198Z,5.80
2023-02-24T10:43:56.896Z,5.70
2023-02-24T10:48:41.407Z,5.80
2023-02-24T10:53:11.610Z,6.00
2023-02-24T10:57:58.260Z,6.20
2023-02-24T11:02:30.130Z,6.50
2023-02-24T11:07:09.709Z,7.10
2023-02-24T11:11:55.015Z,7.50
2023-02-24T11:16:35.550Z,7.30
2023-02-24T11:21:11.301Z,7.70
2023-02-24T11:25:46.529Z,8.80
2023-02-24T11:30:24.035Z,9.80
2023-02-24T11:35:12.668Z,9.90
2023-02-24T11:39:57.464Z,10.30
2023-02-24T11:44:54.526Z,9.80
2023-02-24T11:49:37.332Z,9.30
2023-02-24T11:54:06.972Z,9.30
2023-02-24T11:58:44.750Z,9.20
2023-02-24T12:04:13.170Z,8.90
2023-02-24T12:08:41.211Z,9.10
2023-02-24T12:13:14.211Z,9.00
2023-02-24T12:17:49.708Z,8.90
2023-02-24T12:22:16.292Z,9.00
2023-02-24T12:27:33.752Z,9.20
2023-02-24T12:32:24.044Z,9.30
2023-02-24T12:37:17.677Z,9.40
2023-02-24T12:42:10.426Z,8.80
2023-02-24T12:46:38.561Z,8.60
2023-02-24T12:51:25.266Z,9.20
2023-02-24T12:56:47.349Z,9.70
2023-02-24T13:01:29.041Z,9.60
2023-02-24T13:06:07.669Z,9.30
2023-02-24T13:10:51.197Z,9.10
2023-02-24T13:15:26.588Z,8.50
2023-02-24T13:19:52.367Z,8.20
2023-02-24T13:24:22.994Z,8.00
2023-02-24T13:28:45.204Z,7.80
2023-02-24T13:33:28.976Z,7.80
2023-02-24T13:37:52.062Z,7.80
2023-02-24T13:42:32.152Z,8.00
2023-02-24T13:47:23.205Z,8.10
2023-02-24T13:52:11.225Z,8.00
2023-02-24T13:56:51.516Z,7.70
2023-02-24T14:01:19.465Z,7.40
2023-02-24T14:05:43.713Z,7.30
2023-02-24T14:10:25.389Z,7.30
2023-02-24T14:14:49.538Z,7.20
2023-02-24T14:19:17.211Z,6.90
2023-02-24T14:23:38.997Z,6.80
2023-02-24T14:28:01.991Z,6.60
2023-02-24T14:32:27.522Z,6.70
2023-02-24T14:36:53.435Z,6.70
2023-02-24T14:41:27.884Z,6.90
2023-02-24T14:45:53.147Z,7.10
2023-02-24T14:50:25.733Z,7.20
2023-02-24T14:54:59.868Z,7.20
2023-02-24T14:59:39.840Z,7.10
2023-02-24T15:04:15.822Z,7.10
2023-02-24T15:08:50.676Z,7.00
2023-02-24T15:13:27.753Z,6.90
2023-02-24T15:17:59.490Z,6.80
2023-02-24T15:22:27.290Z,6.60
2023-02-24T15:27:00.174Z,6.50
2023-02-24T15:31:23.121Z,6.30
2023-02-24T15:35:58.574Z,6.30
2023-02-24T15:40:25.039Z,6.30
2023-02-24T15:45:05.820Z,6.20
2023-02-24T15:49:27.944Z,6.10
2023-02-24T15:53:50.205Z,5.60
2023-02-24T15:58:21.764Z,5.10
2023-02-24T16:02:43.874Z,4.80
2023-02-24T16:07:10.288Z,4.50
2023-02-24T16:11:38.759Z,4.40
2023-02-24T16:16:00.753Z,4.40
2023-02-24T16:20:31.602Z,4.30
2023-02-24T16:24:53.693Z,4.10
2023-02-24T16:29:16.232Z,4.00
2023-02-24T16:33:53.268Z,4.00
2023-02-24T16:38:19.886Z,3.80
2023-02-24T16:42:42.250Z,3.80
2023-02-24T16:47:07.338Z,3.80
2023-02-24T16:51:29.231Z,3.80
2023-02-24T16:55:51.731Z,3.70
2023-02-24T17:00:15.546Z,3.60
2023-02-24T17:04:37.504Z,3.50
2023-02-24T17:08:59.891Z,3.50
2023-02-24T17:13:22.786Z,3.40
2023-02-24T17:17:44.808Z,3.40
2023-02-24T17:22:06.752Z,3.40
2023-02-24T17:26:28.977Z,3.30
2023-02-24T17:30:51.498Z,3.20
2023-02-24T17:35:13.776Z,3.10
2023-02-24T17:39:35.897Z,3.10
2023-02-24T17:43:59.291Z,3.00
2023-02-24T17:48:22.292Z,3.00
2023-02-24T17:52:44.227Z,3.00
2023-02-24T17:57:08.483Z,2.90
2023-02-24T18:01:30.594Z,2.80
2023-02-24T18:06:09.645Z,2.70
2023-02-24T18:10:31.445Z,2.70
2023-02-24T18:15:07.500Z,2.60
2023-02-24T18:19:30.648Z,2.60
2023-02-24T18:23:53.128Z,2.50
2023-02-24T18:28:15.006Z,2.40
2023-02-24T18:32:43.308Z,2.40
2023-02-24T18:37:05.240Z,2.30
2023-02-24T18:41:27.639Z,2.30
2023-02-24T18:45:50.003Z,2.30
2023-02-24T18:50:13.932Z,2.30
2023-02-24T18:54:35.824Z,2.30
2023-02-24T18:59:00.700Z,2.30
2023-02-24T19:03:22.716Z,2.20
2023-02-24T19:07:44.951Z,2.20
2023-02-24T19:12:07.112Z,2.30
2023-02-24T19:16:29.706Z,2.30
2023-02-24T19:20:51.990Z,2.30
2023-02-24T19:25:14.247Z,2.20
2023-02-24T19:29:36.436Z,2.20
2023-02-24T19:34:08.501Z,2.20
2023-02-24T19:38:30.725Z,2.20
2023-02-24T19:42:53.352Z,2.30
2023-02-24T19:47:15.542Z,2.40
2023-02-24T19:51:37.893Z,2.40
2023-02-24T19:56:00.610Z,2.40
2023-02-24T20:00:23.732Z,2.40
2023-02-24T20:04:46.145Z,2.50
2023-02-24T20:09:12.408Z,2.50
2023-02-24T20:13:34.870Z,2.40
2023-02-24T20:17:56.663Z,2.50
2023-02-24T20:22:19.551Z,2.50
2023-02-24T20:26:47.197Z,2.50
2023-02-24T20:31:13.270Z,2.50
2023-02-24T20:35:40.256Z,2.50
2023-02-24T20:40:02.431Z,2.50
2023-02-24T20:44:24.799Z,2.50
2023-02-24T20:48:46.602Z,2.60
2023-02-24T20:53:08.671Z,2.60
2023-02-24T20:57:30.668Z,2.70
2023-02-24T21:01:52.751Z,2.70
2023-02-24T21:06:17.190Z,2.70
2023-02-24T21:10:43.184Z,2.80
2023-02-24T21:15:06.499Z,2.80
2023-02-24T21:19:29.464Z,2.80
2023-02-24T21:23:51.600Z,2.80
2023-02-24T21:28:13.822Z,2.80
2023-02-24T21:32:35.959Z,2.70
2023-02-24T21:36:58.546Z,2.60
2023-02-24T21:41:21.644Z,2.50
2023-02-24T21:45:45.545Z,2.50
2023-02-24T21:50:12.169Z,2.50
2023-02-24T21:54:34.424Z,2.50
2023-02-24T21:59:03.526Z,2.50
2023-02-24T22:03:25.562Z,2.60
2023-02-24T22:07:49.688Z,2.70
2023-02-24T22:12:11.508Z,2.70
2023-02-24T22:16:33.567Z,2.70
2023-02-24T22:20:55.696Z,2.70
2023-02-24T22:25:17.852Z,2.70
2023-02-24T22:29:39.659Z,2.70
2023-02-24T22:34:01.850Z,2.70
2023-02-24T22:38:23.904Z,2.70
2023-02-24T22:42:45.728Z,2.50
2023-02-24T22:47:08.017Z,2.40
2023-02-24T22:51:30.334Z,2.30
2023-02-24T22:55:54.588Z,2.20
2023-02-24T23:00:20.401Z,2.10
2023-02-24T23:04:44.169Z,2.00
2023-02-24T23:09:07.138Z,1.90
2023-02-24T23:13:29.169Z,1.90
2023-02-24T23:17:51.421Z,1.90
2023-02-24T23:22:14.920Z,1.90
2023-02-24T23:26:51.476Z,1.80
2023-02-24T23:31:20.376Z,1.80
2023-02-24T23:35:42.807Z,1.80
2023-02-24T23:40:10.527Z,1.80
2023-02-24T23:44:36.229Z,1.70
2023-02-24T23:48:58.613Z,1.70
2023-02-24T23:53:20.493Z,1.70
2023-02-24T23:57:43.275Z,1.70
